TimeCST,TemperatureF,Dew PointF,Humidity,Sea Level PressureIn,VisibilityMPH,Wind Direction,Wind SpeedMPH,Gust SpeedMPH,PrecipitationIn,Events,Conditions,WindDirDegrees,DateUTC
12:52 AM,30.9,28.0,89,29.73,10.0,North,10.4,-,0.00,,Overcast,360,2013-02-27 06:52:00
1:52 AM,30.9,27.0,85,29.72,10.0,North,12.7,-,N/A,,Overcast,360,2013-02-27 07:52:00
2:42 AM,30.2,26.6,86,29.69,10.0,NNW,15.0,21.9,N/A,,Overcast,340,2013-02-27 08:42:00
2:52 AM,30.9,27.0,85,29.72,10.0,NNW,11.5,-,N/A,,Overcast,340,2013-02-27 08:52:00
3:52 AM,30.9,27.0,85,29.73,10.0,NNW,6.9,-,N/A,,Overcast,340,2013-02-27 09:52:00
4:52 AM,30.0,28.0,92,29.74,2.5,NNW,10.4,-,0.00,Snow,Light Snow,330,2013-02-27 10:52:00
5:10 AM,30.2,26.6,86,29.71,2.5,NNW,11.5,-,0.00,Snow,Light Snow,340,2013-02-27 11:10:00
5:22 AM,30.2,28.4,93,29.71,2.0,NNW,10.4,-,0.00,Snow,Light Snow,330,2013-02-27 11:22:00
5:32 AM,30.2,28.4,93,29.71,1.8,NNW,10.4,-,0.00,Snow,Light Snow,330,2013-02-27 11:32:00
5:41 AM,30.2,28.4,93,29.71,2.0,NNW,10.4,-,0.01,Snow,Light Snow,340,2013-02-27 11:41:00
5:52 AM,30.0,27.0,88,29.74,5.0,NNW,10.4,-,0.01,Snow,Light Snow,340,2013-02-27 11:52:00
6:01 AM,30.2,26.6,86,29.71,5.0,NNW,11.5,-,0.00,Snow,Light Snow,340,2013-02-27 12:01:00
6:14 AM,30.2,26.6,86,29.71,4.0,NNW,8.1,-,0.00,Snow,Light Snow,330,2013-02-27 12:14:00
6:52 AM,30.0,27.0,88,29.75,2.5,NNW,9.2,-,0.00,Snow,Light Snow,340,2013-02-27 12:52:00
6:57 AM,30.2,28.4,93,29.72,3.0,NNW,8.1,-,0.00,Snow,Light Snow,340,2013-02-27 12:57:00
7:01 AM,30.2,28.4,93,29.72,2.5,NNW,9.2,-,0.00,Snow,Light Snow,340,2013-02-27 13:01:00
7:11 AM,30.2,28.4,93,29.72,1.8,NNW,10.4,-,0.00,Snow,Light Snow,340,2013-02-27 13:11:00
7:28 AM,30.2,28.4,93,29.72,1.2,NNW,8.1,-,0.00,Snow,Light Snow,330,2013-02-27 13:28:00
7:52 AM,30.9,28.0,89,29.75,3.0,NNW,11.5,-,0.00,Snow,Light Snow,330,2013-02-27 13:52:00
8:52 AM,30.9,27.0,85,29.76,3.0,NNW,9.2,18.4,0.00,Snow,Light Snow,340,2013-02-27 14:52:00
9:28 AM,30.2,26.6,86,29.74,2.0,NNW,9.2,-,0.00,Snow,Light Snow,340,2013-02-27 15:28:00
9:40 AM,30.2,28.4,93,29.75,1.8,NNW,11.5,-,0.00,Snow,Light Snow,340,2013-02-27 15:40:00
9:44 AM,30.2,28.4,93,29.75,2.0,NNW,8.1,-,0.00,Snow,Light Snow,340,2013-02-27 15:44:00
9:47 AM,30.2,28.4,93,29.75,1.8,NNW,11.5,-,0.00,Snow,Light Snow,330,2013-02-27 15:47:00
9:52 AM,30.9,28.0,89,29.77,1.5,NNW,10.4,-,0.00,Snow,Light Snow,340,2013-02-27 15:52:00
10:09 AM,30.2,28.4,93,29.75,1.2,NNW,11.5,-,0.01,Snow,Light Snow,330,2013-02-27 16:09:00
10:23 AM,30.2,28.4,93,29.75,1.0,NNW,9.2,-,0.01,Snow,Light Snow,330,2013-02-27 16:23:00
10:38 AM,30.2,28.4,93,29.75,1.2,NNW,8.1,-,0.01,Snow,Light Snow,330,2013-02-27 16:38:00
10:52 AM,30.9,28.0,89,29.77,1.0,NNW,10.4,-,0.01,Snow,Light Snow,330,2013-02-27 16:52:00
10:59 AM,32.0,28.4,87,29.75,1.5,NNW,9.2,-,0.00,Snow,Light Snow,340,2013-02-27 16:59:00
11:06 AM,32.0,28.4,87,29.75,1.8,NNW,10.4,-,0.00,Snow,Light Snow,330,2013-02-27 17:06:00
11:31 AM,30.2,28.4,93,29.75,3.0,NW,11.5,-,0.00,Snow,Light Snow,320,2013-02-27 17:31:00
11:52 AM,32.0,30.0,92,29.78,4.0,NNW,10.4,-,0.01,Snow,Light Snow,330,2013-02-27 17:52:00
12:24 PM,32.0,28.4,87,29.75,1.8,NW,15.0,20.7,0.00,Snow,Light Snow,320,2013-02-27 18:24:00
12:29 PM,30.2,28.4,93,29.75,1.0,NW,11.5,20.7,0.00,Snow,Light Snow,320,2013-02-27 18:29:00
12:41 PM,32.0,28.4,87,29.75,2.0,NW,11.5,-,0.00,Snow,Light Snow,320,2013-02-27 18:41:00
12:50 PM,32.0,28.4,87,29.75,4.0,NNW,13.8,18.4,0.00,Snow,Light Snow,330,2013-02-27 18:50:00
12:52 PM,32.0,28.0,85,29.77,4.0,NW,11.5,18.4,0.00,Snow,Light Snow,320,2013-02-27 18:52:00
1:09 PM,32.0,28.4,87,29.75,2.5,NNW,11.5,21.9,0.00,Snow,Light Snow,330,2013-02-27 19:09:00
1:21 PM,32.0,28.4,87,29.75,1.2,NW,15.0,-,0.00,Snow,Light Snow,320,2013-02-27 19:21:00
1:30 PM,32.0,28.4,87,29.75,1.0,NNW,10.4,-,0.00,Snow,Light Snow,330,2013-02-27 19:30:00
1:40 PM,32.0,28.4,87,29.76,1.0,NNW,10.4,-,0.00,Snow,Light Snow,330,2013-02-27 19:40:00
1:52 PM,32.0,28.9,88,29.78,1.0,NW,11.5,-,0.00,Snow,Light Snow,320,2013-02-27 19:52:00
2:08 PM,32.0,28.4,87,29.76,1.5,NW,12.7,-,0.00,Snow,Light Snow,320,2013-02-27 20:08:00
2:21 PM,32.0,28.4,87,29.76,2.0,NW,13.8,-,0.00,Snow,Light Snow,320,2013-02-27 20:21:00
2:52 PM,32.0,28.9,88,29.79,1.2,NW,15.0,-,0.00,Snow,Light Snow,320,2013-02-27 20:52:00
3:06 PM,32.0,28.4,87,29.78,2.0,NW,12.7,18.4,0.00,Snow,Light Snow,320,2013-02-27 21:06:00
3:32 PM,32.0,28.4,87,29.78,4.0,NW,9.2,-,0.00,Snow,Light Snow,320,2013-02-27 21:32:00
3:52 PM,32.0,28.9,88,29.81,4.0,NW,12.7,-,0.00,Snow,Light Snow,320,2013-02-27 21:52:00
3:59 PM,32.0,28.4,87,29.79,4.0,NW,12.7,-,0.00,Snow,Light Snow,310,2013-02-27 21:59:00
4:27 PM,32.0,28.4,87,29.80,2.5,NW,10.4,-,0.00,Snow,Light Snow,320,2013-02-27 22:27:00
4:41 PM,32.0,28.4,87,29.80,4.0,NW,11.5,-,0.00,Snow,Light Snow,320,2013-02-27 22:41:00
4:52 PM,32.0,28.9,88,29.83,7.0,NW,10.4,-,0.00,Snow,Light Snow,320,2013-02-27 22:52:00
5:05 PM,32.0,28.4,87,29.81,5.0,NW,11.5,-,0.00,Snow,Light Snow,310,2013-02-27 23:05:00
5:52 PM,32.0,28.9,88,29.85,10.0,NW,11.5,-,0.00,,Overcast,320,2013-02-27 23:52:00
6:22 PM,33.8,28.4,81,29.83,10.0,NW,12.7,-,N/A,,Overcast,310,2013-02-28 00:22:00
6:52 PM,33.1,28.9,85,29.86,10.0,NNW,12.7,-,N/A,,Overcast,330,2013-02-28 00:52:00
8:48 PM,33.8,28.4,81,29.85,10.0,NW,11.5,-,0.00,,Overcast,320,2013-02-28 02:48:00
8:52 PM,33.1,28.9,85,29.88,10.0,NNW,11.5,-,0.00,,Overcast,330,2013-02-28 02:52:00
9:52 PM,33.1,28.9,85,29.89,7.0,NW,10.4,-,0.00,Snow,Light Snow,320,2013-02-28 03:52:00
10:17 PM,32.0,30.2,93,29.87,3.0,NNW,11.5,-,0.00,Snow,Light Snow,330,2013-02-28 04:17:00
10:52 PM,32.0,28.9,88,29.90,7.0,NNW,10.4,-,0.00,Snow,Light Snow,330,2013-02-28 04:52:00
11:49 PM,32.0,28.4,87,29.88,6.0,NW,10.4,-,0.00,Snow,Light Snow,320,2013-02-28 05:49:00
11:52 PM,32.0,28.9,88,29.90,8.0,NW,8.1,-,0.00,Snow,Light Snow,320,2013-02-28 05:52:00